Terminal Aerodrome Forecast
Issued by NWS

Home | Current Version | Previous Version | Graphics & Text | Print | Product List | Glossary On
Versions: 1 2 3 4 5 6 7 8 9 10 11 12 13 14 15 16 17 18 19 20 21 22 23 24 25 26 27 28 29
000
FTUS43 KLOT 130303 AAA
TAFMDW
TAF AMD
KMDW 130303Z 1303/1406 25007KT P6SM SCT040 BKN080
     FM130700 20006KT P6SM SCT035 OVC060
     FM131100 17011KT P6SM OVC035
      TEMPO 1311/1315 2SM -SN SCT020 OVC030
     FM131500 21014G21KT P6SM SCT030 OVC060
     FM131800 23014G21KT 6SM -SN OVC025
      TEMPO 1319/1321 1 1/2SM -SN BKN015
     FM132100 31014G24KT P6SM OVC018
     FM140000 35015G25KT 6SM -SHSN OVC020
      TEMPO 1402/1405 02012G18KT 1 1/2SM -SN BKN015=

USA.gov is the U.S. government's official web portal to all federal, state and local government web resources and services.